createdAt,value
2018-07-03T00:01:14.316Z,49.57
2018-07-03T00:04:39.030Z,50.05
2018-07-03T00:08:03.349Z,49.65
2018-07-03T00:11:27.990Z,50.17
2018-07-03T00:14:52.665Z,50.02
2018-07-03T00:18:17.320Z,50.47
2018-07-03T00:21:41.210Z,50.79
2018-07-03T00:25:05.982Z,51.10
2018-07-03T00:28:30.596Z,51.39
2018-07-03T00:31:55.182Z,52.41
2018-07-03T00:35:19.828Z,51.95
2018-07-03T00:38:44.448Z,52.45
2018-07-03T00:42:10.098Z,52.75
2018-07-03T00:45:34.722Z,53.02
2018-07-03T00:48:59.423Z,51.88
2018-07-03T00:52:24.035Z,51.99
2018-07-03T00:55:48.638Z,52.09
2018-07-03T00:59:12.922Z,51.10
2018-07-03T01:02:37.618Z,51.35
2018-07-03T01:06:02.230Z,51.66
2018-07-03T01:09:26.910Z,52.08
2018-07-03T01:12:51.549Z,52.33
2018-07-03T01:16:16.191Z,52.12
2018-07-03T01:19:40.794Z,52.53
2018-07-03T01:23:05.779Z,52.66
2018-07-03T01:26:30.418Z,51.90
2018-07-03T01:29:55.099Z,51.55
2018-07-03T01:33:19.769Z,51.16
2018-07-03T01:36:44.447Z,50.79
2018-07-03T01:40:09.172Z,51.17
2018-07-03T01:43:33.844Z,51.48
2018-07-03T01:46:58.527Z,50.61
2018-07-03T01:50:23.170Z,50.90
2018-07-03T01:53:48.807Z,52.11
2018-07-03T01:57:13.047Z,51.69
2018-07-03T02:00:37.764Z,51.69
2018-07-03T02:04:02.402Z,51.78
2018-07-03T02:07:27.024Z,51.15
2018-07-03T02:10:51.693Z,50.87
2018-07-03T02:14:16.346Z,51.87
2018-07-03T02:17:40.975Z,51.40
2018-07-03T02:21:05.636Z,51.00
2018-07-03T02:24:30.315Z,51.23
2018-07-03T02:27:54.639Z,51.29
2018-07-03T02:31:19.402Z,51.74
2018-07-03T02:34:45.135Z,51.39
2018-07-03T02:38:09.830Z,51.01
2018-07-03T02:41:34.464Z,51.67
2018-07-03T02:44:59.050Z,52.74
2018-07-03T02:48:23.667Z,51.48
2018-07-03T02:51:48.302Z,52.10
2018-07-03T02:55:13.052Z,52.15
2018-07-03T02:58:37.712Z,51.51
2018-07-03T03:02:02.319Z,51.45
2018-07-03T03:05:26.700Z,51.84
2018-07-03T03:08:51.324Z,51.21
2018-07-03T03:12:16.130Z,52.18
2018-07-03T03:15:40.807Z,53.70
2018-07-03T03:19:05.414Z,54.08
2018-07-03T03:22:30.063Z,53.44
2018-07-03T03:25:54.828Z,52.98
2018-07-03T03:29:19.452Z,53.93
2018-07-03T03:32:44.116Z,52.56
2018-07-03T03:36:08.756Z,52.87
2018-07-03T03:39:33.416Z,53.23
2018-07-03T03:42:58.041Z,51.83
2018-07-03T03:46:22.773Z,51.39
2018-07-03T03:49:47.496Z,52.17
2018-07-03T03:53:12.123Z,52.27
2018-07-03T03:56:36.881Z,52.02
2018-07-03T04:00:01.524Z,52.11
2018-07-03T04:03:26.204Z,53.02
2018-07-03T04:06:50.862Z,52.21
2018-07-03T04:10:15.501Z,51.21
2018-07-03T04:13:40.148Z,51.13
2018-07-03T04:17:04.759Z,51.83
2018-07-03T04:20:29.404Z,51.90
2018-07-03T04:23:54.146Z,52.04
2018-07-03T04:27:18.874Z,52.87
2018-07-03T04:30:43.216Z,52.09
2018-07-03T04:34:07.887Z,51.95
2018-07-03T04:37:32.500Z,52.38
2018-07-03T04:40:57.223Z,51.98
2018-07-03T04:44:21.900Z,51.31
2018-07-03T04:47:46.584Z,50.96
2018-07-03T04:51:11.191Z,50.95
2018-07-03T04:54:35.825Z,52.56
2018-07-03T04:58:00.466Z,52.78
2018-07-03T05:01:25.130Z,51.05
2018-07-03T05:04:49.524Z,51.19
2018-07-03T05:08:14.176Z,51.72
2018-07-03T05:11:39.421Z,50.48
2018-07-03T05:15:05.185Z,49.60
2018-07-03T05:18:30.091Z,49.43
2018-07-03T05:21:56.860Z,48.98
2018-07-03T05:25:21.516Z,48.41
2018-07-03T05:28:46.217Z,49.50
2018-07-03T05:32:11.495Z,52.21
2018-07-03T05:35:36.156Z,53.79
2018-07-03T05:39:00.826Z,57.92
2018-07-03T05:42:25.497Z,55.31
2018-07-03T05:45:50.207Z,59.16
2018-07-03T05:49:14.507Z,63.32
2018-07-03T05:52:39.193Z,65.32
2018-07-03T05:56:03.873Z,68.87
2018-07-03T05:59:28.513Z,69.70
2018-07-03T06:02:53.139Z,70.59
2018-07-03T06:06:17.797Z,71.67
2018-07-03T06:09:42.492Z,71.37
2018-07-03T06:13:07.147Z,67.85
2018-07-03T06:16:31.816Z,69.78
2018-07-03T06:21:25.461Z,73.23
2018-07-03T06:24:50.090Z,72.53
2018-07-03T06:28:14.717Z,80.63
2018-07-03T06:31:39.367Z,88.23
2018-07-03T06:35:04.070Z,88.60
2018-07-03T06:38:28.793Z,89.23
2018-07-03T06:41:53.622Z,90.78
2018-07-03T06:45:17.933Z,89.68
2018-07-03T06:48:42.608Z,85.62
2018-07-03T06:52:07.348Z,87.47
2018-07-03T06:55:32.029Z,86.58
2018-07-03T06:58:56.721Z,83.21
2018-07-03T07:02:21.452Z,83.73
2018-07-03T07:05:46.095Z,83.90
2018-07-03T07:09:11.400Z,87.68
2018-07-03T07:12:36.059Z,88.09
2018-07-03T07:16:00.656Z,86.95
2018-07-03T07:19:25.430Z,86.33
2018-07-03T07:22:50.079Z,87.79
2018-07-03T07:26:14.733Z,86.53
2018-07-03T07:29:39.418Z,87.09
2018-07-03T07:33:04.116Z,86.71
2018-07-03T07:36:28.881Z,84.82
2018-07-03T07:39:53.503Z,81.70
2018-07-03T07:43:18.116Z,82.45
2018-07-03T07:46:42.822Z,83.24
2018-07-03T07:58:12.562Z,83.59
2018-07-03T08:01:37.085Z,83.44
2018-07-03T08:05:02.006Z,83.88
2018-07-03T08:08:26.729Z,84.56
2018-07-03T08:11:51.471Z,82.68
2018-07-03T08:15:16.214Z,83.07
2018-07-03T08:18:41.081Z,82.98
2018-07-03T08:22:05.840Z,82.75
2018-07-03T08:25:30.693Z,81.74
2018-07-03T08:28:55.501Z,79.10
2018-07-03T08:32:20.858Z,82.77
2018-07-03T08:35:45.730Z,82.25
2018-07-03T08:39:11.729Z,83.66
2018-07-03T08:42:36.616Z,82.50
2018-07-03T08:46:01.537Z,81.65
2018-07-03T08:49:26.322Z,83.39
2018-07-03T08:52:51.166Z,84.12
2018-07-03T08:56:15.889Z,84.58
2018-07-03T08:59:40.654Z,81.82
2018-07-03T09:03:05.431Z,80.96
2018-07-03T09:06:30.441Z,80.79
2018-07-03T09:09:55.214Z,77.81
2018-07-03T09:13:20.613Z,75.56
2018-07-03T09:16:46.266Z,76.56
2018-07-03T09:20:11.192Z,76.86
2018-07-03T09:23:35.987Z,77.27
2018-07-03T09:27:01.641Z,77.22
2018-07-03T09:30:26.396Z,75.68
2018-07-03T09:33:51.126Z,75.29
2018-07-03T09:37:16.475Z,74.99
2018-07-03T09:40:41.069Z,74.25
2018-07-03T09:44:05.847Z,72.07
2018-07-03T09:47:31.338Z,72.79
2018-07-03T09:50:58.920Z,72.94
2018-07-03T09:54:24.310Z,69.57
2018-07-03T09:57:49.082Z,69.10
2018-07-03T10:01:20.660Z,67.66
2018-07-03T10:04:45.451Z,65.51
2018-07-03T10:08:11.348Z,66.79
2018-07-03T10:11:36.128Z,64.07
2018-07-03T10:15:01.904Z,65.99
2018-07-03T10:18:26.909Z,66.58
2018-07-03T10:21:51.609Z,66.10
2018-07-03T10:25:15.896Z,65.68
2018-07-03T10:28:41.824Z,67.21
2018-07-03T10:32:06.807Z,66.80
2018-07-03T10:35:34.274Z,67.49
2018-07-03T10:38:59.635Z,66.67
2018-07-03T10:42:24.668Z,67.16
2018-07-03T10:45:50.445Z,66.94
2018-07-03T10:49:16.891Z,66.09
2018-07-03T10:52:42.445Z,65.30
2018-07-03T10:56:07.387Z,66.37
2018-07-03T10:59:32.004Z,63.37
2018-07-03T11:02:56.734Z,62.01
2018-07-03T11:06:21.718Z,62.30
2018-07-03T11:09:46.406Z,60.95
2018-07-03T11:13:11.207Z,61.54
2018-07-03T11:16:37.076Z,58.50
2018-07-03T11:20:01.924Z,59.72
2018-07-03T11:23:26.477Z,58.13
2018-07-03T11:26:50.858Z,58.06
2018-07-03T11:30:15.152Z,57.24
2018-07-03T11:33:39.865Z,55.46
2018-07-03T11:37:04.475Z,55.72
2018-07-03T11:40:29.177Z,55.18
2018-07-03T11:43:53.845Z,54.83
2018-07-03T11:47:19.429Z,56.05
2018-07-03T11:50:44.106Z,55.28
2018-07-03T11:54:08.816Z,56.72
2018-07-03T11:57:34.605Z,57.99
2018-07-03T12:00:59.478Z,58.85
2018-07-03T12:04:24.218Z,60.15
2018-07-03T12:07:48.940Z,59.03
2018-07-03T12:11:13.667Z,58.30
2018-07-03T12:14:38.381Z,58.61
2018-07-03T12:18:03.006Z,59.33
2018-07-03T12:21:28.091Z,59.80
2018-07-03T12:24:52.812Z,58.59
2018-07-03T12:28:17.498Z,60.57
2018-07-03T12:31:42.115Z,66.80
2018-07-03T12:35:07.069Z,64.82
2018-07-03T12:38:31.693Z,65.67
2018-07-03T12:41:56.403Z,65.60
2018-07-03T12:45:23.123Z,63.71
2018-07-03T12:48:47.790Z,63.56
2018-07-03T12:52:12.455Z,64.00
2018-07-03T12:55:37.231Z,63.78
2018-07-03T12:59:02.222Z,64.02
2018-07-03T13:02:27.030Z,63.80
2018-07-03T13:05:51.673Z,62.76
2018-07-03T13:09:16.436Z,61.03
2018-07-03T13:12:41.116Z,59.24
2018-07-03T13:16:05.871Z,62.80
2018-07-03T13:19:30.637Z,63.33
2018-07-03T13:22:56.026Z,62.27
2018-07-03T13:26:20.677Z,60.01
2018-07-03T13:29:45.273Z,61.67
2018-07-03T13:33:10.066Z,61.40
2018-07-03T13:36:34.877Z,60.80
2018-07-03T13:39:59.553Z,57.93
2018-07-03T13:43:24.237Z,57.42
2018-07-03T13:46:50.711Z,57.76
2018-07-03T13:50:16.480Z,56.59
2018-07-03T13:53:43.161Z,55.23
2018-07-03T13:57:11.456Z,53.65
2018-07-03T14:00:36.240Z,53.97
2018-07-03T14:04:00.568Z,51.91
2018-07-03T14:07:25.257Z,50.97
2018-07-03T14:10:49.661Z,49.41
2018-07-03T14:14:14.283Z,50.66
2018-07-03T14:17:39.334Z,50.68
2018-07-03T14:21:04.103Z,52.02
2018-07-03T14:24:28.734Z,53.15
2018-07-03T14:27:53.436Z,52.74
2018-07-03T14:31:18.058Z,52.70
2018-07-03T14:34:42.739Z,52.89
2018-07-03T14:38:08.056Z,52.97
2018-07-03T14:41:32.707Z,52.72
2018-07-03T14:44:57.375Z,52.21
2018-07-03T14:48:22.098Z,54.02
2018-07-03T14:51:46.777Z,51.53
2018-07-03T14:55:11.399Z,54.72
2018-07-03T14:58:36.192Z,54.15
2018-07-03T15:02:00.841Z,53.28
2018-07-03T15:05:25.593Z,54.63
2018-07-03T15:08:49.879Z,54.33
2018-07-03T15:12:14.613Z,53.51
2018-07-03T15:15:39.319Z,52.90
2018-07-03T15:19:08.936Z,54.73
2018-07-03T15:22:33.589Z,53.29
2018-07-03T15:25:57.947Z,53.90
2018-07-03T15:29:22.613Z,55.05
2018-07-03T15:32:47.272Z,54.71
2018-07-03T15:36:11.923Z,54.26
2018-07-03T15:39:36.735Z,54.93
2018-07-03T15:43:01.383Z,54.96
2018-07-03T15:46:26.138Z,54.40
2018-07-03T15:49:50.835Z,54.89
2018-07-03T15:53:15.584Z,53.77
2018-07-03T15:56:40.271Z,52.05
2018-07-03T16:00:05.271Z,52.18
2018-07-03T16:05:17.233Z,50.59
2018-07-03T16:09:00.655Z,49.79
2018-07-03T16:12:25.399Z,49.95
2018-07-03T16:15:50.791Z,48.08
2018-07-03T16:19:20.805Z,45.79
2018-07-03T16:22:45.561Z,43.48
2018-07-03T16:26:10.225Z,42.51
2018-07-03T16:29:34.575Z,42.31
2018-07-03T16:32:59.368Z,43.70
2018-07-03T16:36:24.065Z,44.64
2018-07-03T16:39:48.729Z,46.13
2018-07-03T16:43:13.347Z,45.64
2018-07-03T16:46:38.065Z,48.46
2018-07-03T16:50:02.788Z,48.68
2018-07-03T16:53:27.467Z,47.85
2018-07-03T16:56:52.272Z,49.05
2018-07-03T17:00:23.877Z,46.61
2018-07-03T17:03:48.539Z,48.34
2018-07-03T17:07:12.828Z,46.59
2018-07-03T17:10:37.573Z,44.99
2018-07-03T17:14:02.402Z,43.69
2018-07-03T17:17:27.047Z,40.90
2018-07-03T17:22:20.896Z,41.02
2018-07-03T17:25:45.604Z,42.73
2018-07-03T17:29:10.306Z,44.42
2018-07-03T17:32:34.939Z,46.71
2018-07-03T17:44:20.054Z,45.95
2018-07-03T17:47:44.573Z,46.12
2018-07-03T17:51:10.437Z,47.43
2018-07-03T17:54:35.078Z,48.01
2018-07-03T17:58:00.353Z,47.88
2018-07-03T18:01:25.092Z,48.83
2018-07-03T18:04:49.392Z,50.02
2018-07-03T18:08:14.092Z,51.26
2018-07-03T18:11:38.893Z,51.25
2018-07-03T18:15:04.086Z,50.80
2018-07-03T18:18:29.623Z,51.23
2018-07-03T18:21:54.309Z,51.95
2018-07-03T18:25:19.277Z,51.52
2018-07-03T18:28:43.971Z,53.01
2018-07-03T18:32:08.667Z,52.54
2018-07-03T18:35:33.483Z,55.31
2018-07-03T18:38:58.289Z,56.81
2018-07-03T18:42:22.680Z,58.19
2018-07-03T18:45:47.539Z,59.48
2018-07-03T18:49:12.453Z,59.09
2018-07-03T18:52:37.033Z,59.40
2018-07-03T18:56:02.067Z,60.63
2018-07-03T18:59:26.851Z,61.06
2018-07-03T19:02:51.802Z,61.50
2018-07-03T19:06:16.558Z,62.47
2018-07-03T19:09:40.966Z,62.54
2018-07-03T19:13:05.792Z,61.73
2018-07-03T19:16:30.522Z,63.24
2018-07-03T19:19:56.280Z,63.45
2018-07-03T19:23:21.025Z,64.40
2018-07-03T19:26:45.867Z,64.41
2018-07-03T19:30:11.626Z,65.66
2018-07-03T19:33:36.044Z,66.17
2018-07-03T19:37:00.513Z,65.98
2018-07-03T19:40:25.292Z,66.21
2018-07-03T19:43:50.040Z,65.79
2018-07-03T19:47:14.432Z,66.62
2018-07-03T19:50:39.177Z,65.68
2018-07-03T19:54:04.054Z,67.08
2018-07-03T19:57:28.787Z,67.39
2018-07-03T20:00:54.690Z,67.67
2018-07-03T20:04:19.532Z,67.97
2018-07-03T20:07:43.893Z,66.76
2018-07-03T20:12:32.988Z,67.56
2018-07-03T20:15:57.724Z,67.00
2018-07-03T20:19:22.455Z,67.90
2018-07-03T20:22:47.141Z,68.50
2018-07-03T20:26:11.933Z,69.78
2018-07-03T20:29:36.717Z,69.70
2018-07-03T20:33:01.445Z,69.28
2018-07-03T20:36:26.140Z,68.82
2018-07-03T20:39:50.842Z,68.75
2018-07-03T20:43:15.528Z,69.04
2018-07-03T20:46:40.256Z,70.77
2018-07-03T20:50:06.166Z,70.53
2018-07-03T20:53:30.534Z,70.26
2018-07-03T20:56:55.202Z,69.82
2018-07-03T21:00:19.922Z,70.26
2018-07-03T21:03:44.750Z,70.24
2018-07-03T21:07:09.255Z,71.59
2018-07-03T21:10:34.042Z,71.44
2018-07-03T21:13:58.697Z,72.06
2018-07-03T21:17:23.425Z,72.06
2018-07-03T21:20:47.779Z,74.75
2018-07-03T21:24:12.515Z,74.03
2018-07-03T21:27:37.124Z,73.94
2018-07-03T21:31:01.930Z,71.92
2018-07-03T21:34:26.798Z,72.01
2018-07-03T21:37:51.491Z,73.33
2018-07-03T21:41:16.221Z,73.29
2018-07-03T21:44:40.930Z,72.64
2018-07-03T21:48:05.588Z,72.81
2018-07-03T21:51:29.906Z,73.51
2018-07-03T21:54:54.564Z,73.98
2018-07-03T21:58:19.188Z,73.75
2018-07-03T22:01:43.973Z,72.35
2018-07-03T22:05:08.606Z,72.10
2018-07-03T22:08:33.306Z,71.25
2018-07-03T22:11:58.083Z,71.20
2018-07-03T22:15:22.676Z,70.23
2018-07-03T22:18:47.404Z,72.28
2018-07-03T22:22:12.184Z,73.08
2018-07-03T22:25:36.917Z,72.38
2018-07-03T22:29:01.563Z,72.64
2018-07-03T22:32:26.181Z,72.77
2018-07-03T22:35:50.884Z,72.44
2018-07-03T22:39:15.884Z,72.96
2018-07-03T22:42:40.632Z,73.16
2018-07-03T22:46:05.055Z,72.35
2018-07-03T22:49:29.773Z,73.67
2018-07-03T22:52:54.574Z,74.29
2018-07-03T22:56:20.309Z,73.73
2018-07-03T22:59:45.991Z,74.20
2018-07-03T23:03:10.678Z,75.52
2018-07-03T23:06:35.390Z,74.01
2018-07-03T23:10:00.073Z,75.45
2018-07-03T23:13:24.830Z,75.53
2018-07-03T23:16:49.471Z,73.75
2018-07-03T23:20:14.191Z,75.00
2018-07-03T23:23:38.946Z,77.47
2018-07-03T23:27:03.665Z,76.92
2018-07-03T23:30:28.489Z,76.98
2018-07-03T23:33:52.862Z,77.37
2018-07-03T23:37:17.588Z,77.85
2018-07-03T23:40:42.310Z,76.93
2018-07-03T23:44:07.099Z,76.08
2018-07-03T23:47:49.095Z,74.52
2018-07-03T23:51:30.813Z,73.73
2018-07-03T23:55:12.681Z,75.47
2018-07-03T23:58:54.674Z,74.40
